Puerto Vallarta, México

2:08 AM CDT en Julio 26, 2014 (GMT -0500)
Lic Gustavo Diaz Ordaz International (MMPR) Alt 20 ft | 20.68 °N, 105.25 °W | Change Station

Current weather conditions updated 17 minutes ago

Clear
Despejado
79 ° F
Sensación térmica 79 ° F
N
5
Viento Variable Viento desde Norte

Hoy se prevé un día Más cálido que ayer. Formación de tormentas por la tarde..

Hoy
Alta -- | Baja -- ° F
--% Posibilidad de precipitaciones
Ayer
Alta -- | Baja -- ° F
Precip. -- pul
7:33 AM 8:41 PM
Creciente menguante, 0% visible
Presión 29.93 pul
Visibilidad 12.0 Millas
Nubes Despejado
Punto de rocío 73 ° F
Humedad 83%
Precipitaciones 0.00 pul
Espesor de la nieve No disponible.
UV 0 de una escala de 12
Polen No disponible.
Calidad del aire No disponible.
Flu Activity No disponible.
METAR MMPR 260651Z 35004KT 12SM SKC 26/23 A2993

More Conditions Fewer Conditions

Presión 29.93 pul
Visibilidad 12.0 Millas
Nubes Despejado
Punto de rocío 73 ° F
Humedad 83%
Precipitaciones 0.00 pul
Espesor de la nieve No disponible.
UV 0 de una escala de 12
Polen No disponible.
Calidad del aire No disponible.
Flu Activity No disponible.
METAR MMPR 260651Z 35004KT 12SM SKC 26/23 A2993

More Conditions Fewer Conditions

10-Day Weather Forecast

Almanac

Astronomía

Jul. 26, 2014 Salida Puesta
Hora real 7:33 AM CDT 8:41 PM CDT
Crepúsculo civil 7:09 AM CDT 9:05 PM CDT
Crepúsculo náutico 6:41 AM CDT 9:33 PM CDT
Crepúsculo astronómico 6:12 AM CDT 10:02 PM CDT
Luna 7:19 AM CDT 8:29 PM CDT
Horas de luz 13h 56m
Horas de luz
13h 08m
Tomorrow will be 0m 48s shorter.
Creciente menguante, 0% of the Moon is Illuminated
Hoy
Creciente menguante
Jul 26
Nueva
Ago 3
Cuarto creciente
Ago 10
Luna llena
Ago 17
Cuarto menguante

Extremos de ayer

Máximos del país Bajas del país

Community

WunderPhotos

Upload Photos

1,737,524 ¡fotos cargadas!

Nearby

Calidad del aire

Not available.

Grosos de nieve

Not available.

Actividad de terremotos

Ciudad Distance Mag. Tiempo y dato
No hay informes recientes de la actividad sísmica.
Magnitud mínima muestra es 2,5.

Temperaturas de aguas costeras

Lugar Temperatura
Sin partes meteorológicos de las estaciones

Estaciones meteorológicas cercanas

Ubicación de la estación Temp. Índice de calor Punto de rocío Humedad Viento Precip. Alt Actualizado Tipo
Nuevo Vallarta, Nuevo Vallarta 80.9 ° F 88 ° F 78 ° F 91% Este  a  0.0 mph 0.00 pul / hr 25 ft 2:07 AM CDT Normal
Cafe Roma, Puerto Vallarta 80.4 ° F 85 ° F 73 ° F 78% Este  a  5.4 mph 0.00 pul / hr 30 ft 2:08 AM CDT Rapid Fire
San Pancho, San Francisco 81.2 ° F 89 ° F 78 ° F 89% Este  a  0.0 mph 0.00 pul / hr 0 ft 1:01 AM MDT Normal
Playa Escondida, Sayulita 81.1 ° F 88 ° F 77 ° F 87% NNE  a  0.0 mph 0.00 pul / hr 65 ft 2:07 AM CDT Rapid Fire

Show More Stations Show Fewer Stations